Time;durP1;ratioP1;P1;durP2;ratioP2;P2;SDS_P1;SDS_P2;PMS_P1;PMS_P2;Temp;Humidity;BMP_temperature;BMP_pressure;BME280_temperature;BME280_humidity;BME280_pressure;Samples;Min_cycle;Max_cycle;Signal;HPM_P1;HPM_P2
2022/08/05 00:02:13;;;;;;;5.35;4.47;;;;;;;18.54;90.66;98203.41;1759882;81;20903;-70
2022/08/05 00:04:39;;;;;;;6.30;4.90;;;;;;;18.48;90.54;98199.34;1738948;82;21865;-70
2022/08/05 00:07:06;;;;;;;5.12;4.47;;;;;;;18.45;90.48;98199.97;1738872;82;21010;-70
2022/08/05 00:09:32;;;;;;;7.92;5.15;;;;;;;18.43;90.56;98198.16;1759939;81;20926;-71
2022/08/05 00:11:59;;;;;;;7.37;5.28;;;;;;;18.41;90.70;98190.38;1738825;82;20967;-70
2022/08/05 00:14:26;;;;;;;5.22;4.40;;;;;;;18.41;90.80;98190.93;1759963;81;21017;-70
2022/08/05 00:16:52;;;;;;;6.95;4.90;;;;;;;18.37;90.58;98185.38;1738932;82;21104;-70
2022/08/05 00:19:18;;;;;;;7.15;5.05;;;;;;;18.32;90.39;98188.88;1759886;81;20973;-70
2022/08/05 00:21:51;;;;;;;5.92;4.55;;;;;;;18.29;90.36;98186.83;1738758;82;21000;-69
2022/08/05 00:24:17;;;;;;;5.30;4.75;;;;;;;18.26;90.24;98191.56;1780964;80;21415;-70
2022/08/05 00:26:43;;;;;;;5.00;4.50;;;;;;;18.20;90.18;98186.94;1783612;80;20888;-69
2022/08/05 00:29:16;;;;;;;6.10;4.55;;;;;;;18.18;90.20;98187.03;1783539;80;21577;-69
2022/08/05 00:31:42;;;;;;;5.65;4.35;;;;;;;18.15;90.23;98184.98;1783641;80;20864;-69
2022/08/05 00:34:09;;;;;;;5.40;4.90;;;;;;;18.12;90.24;98182.38;1783604;80;20884;-69
2022/08/05 00:36:35;;;;;;;8.60;5.28;;;;;;;18.10;90.34;98185.20;1783672;80;20982;-69
2022/08/05 00:39:02;;;;;;;5.95;5.10;;;;;;;18.08;90.41;98181.47;1783626;80;20856;-68
2022/08/05 00:41:33;;;;;;;7.05;5.00;;;;;;;18.08;90.38;98187.45;1783680;80;21122;-69
2022/08/05 00:44:00;;;;;;;5.62;4.92;;;;;;;18.06;90.40;98185.64;1783656;80;20920;-69
2022/08/05 00:46:26;;;;;;;6.92;4.53;;;;;;;18.05;90.45;98188.91;1783893;80;21505;-69
2022/08/05 00:48:53;;;;;;;8.35;5.00;;;;;;;18.04;90.55;98182.48;1783744;80;21352;-70
2022/08/05 00:51:20;;;;;;;8.18;5.20;;;;;;;18.05;90.59;98178.06;1783758;80;20892;-70
2022/08/05 00:53:47;;;;;;;6.90;5.17;;;;;;;18.02;90.66;98173.30;1783828;80;21128;-70
2022/08/05 00:56:15;;;;;;;5.90;5.03;;;;;;;17.99;90.74;98175.91;1783674;80;20907;-70
2022/08/05 00:58:42;;;;;;;8.33;4.87;;;;;;;17.94;90.83;98173.40;1783734;80;20979;-71
2022/08/05 01:01:10;;;;;;;6.75;5.00;;;;;;;17.91;91.07;98175.41;1783777;80;20939;-70
2022/08/05 01:03:38;;;;;;;6.53;4.70;;;;;;;17.91;91.38;98174.05;1783846;80;20959;-70
2022/08/05 01:06:06;;;;;;;7.60;4.87;;;;;;;17.93;91.57;98169.09;1783823;80;21002;-70
2022/08/05 01:08:34;;;;;;;6.72;5.22;;;;;;;17.94;91.78;98167.42;1783772;80;20880;-70
2022/08/05 01:11:14;;;;;;;9.03;5.30;;;;;;;17.97;91.95;98168.09;1784014;80;21359;-70
2022/08/05 01:14:10;;;;;;;11.22;7.00;;;;;;;17.99;92.30;98171.28;1783737;80;20868;-70
2022/08/05 01:16:55;;;;;;;;;;;;;;;17.99;93.07;98168.58;1786531;80;20982;-70
2022/08/05 01:19:53;;;;;;;14.23;5.73;;;;;;;17.97;93.97;98167.33;1741435;82;21290;-70
2022/08/05 01:22:38;;;;;;;8.25;5.80;;;;;;;17.96;94.57;98163.02;1741230;82;20924;-70
2022/08/05 01:25:45;;;;;;;8.63;6.07;;;;;;;17.99;95.00;98166.42;1710495;84;20940;-70
2022/08/05 01:28:51;;;;;;;7.60;6.42;;;;;;;18.02;95.24;98164.37;1741394;82;21642;-71
2022/08/05 01:31:40;;;;;;;9.43;5.75;;;;;;;18.09;95.31;98158.64;1701376;84;21051;-71
2022/08/05 01:34:35;;;;;;;7.25;5.70;;;;;;;18.13;95.33;98163.65;1726685;83;21315;-70
2022/08/05 01:37:14;;;;;;;;;;;;;;;18.18;95.35;98172.13;1727693;82;21403;-70
2022/08/05 01:39:41;;;;;;;8.00;6.20;;;;;;;18.19;95.55;98165.56;1710370;84;20096;-69
2022/08/05 01:42:07;;;;;;;9.15;6.08;;;;;;;18.20;95.67;98165.80;1718748;82;20936;-69
2022/08/05 01:44:34;;;;;;;7.15;6.15;;;;;;;18.23;95.75;98165.14;1718623;82;20916;-70
2022/08/05 01:47:00;;;;;;;7.28;5.80;;;;;;;18.24;95.76;98163.44;1710614;84;21404;-69
2022/08/05 01:49:27;;;;;;;6.97;6.20;;;;;;;18.26;95.73;98167.16;1741224;82;20971;-70
2022/08/05 01:51:57;;;;;;;6.87;6.28;;;;;;;18.25;95.78;98164.23;1710318;84;20893;-70
2022/08/05 01:54:27;;;;;;;9.95;6.75;;;;;;;18.25;95.93;98158.81;1741298;82;20848;-70
2022/08/05 01:56:54;;;;;;;7.83;6.35;;;;;;;18.24;96.06;98155.86;1741356;82;20882;-70
2022/08/05 01:59:21;;;;;;;8.78;6.47;;;;;;;18.27;96.13;98157.91;1741561;82;21441;-69
2022/08/05 02:01:48;;;;;;;8.50;6.05;;;;;;;18.29;96.11;98163.78;1741178;82;20944;-69
2022/08/05 02:04:15;;;;;;;10.10;6.37;;;;;;;18.29;96.07;98161.08;1741251;82;20900;-70
2022/08/05 02:06:41;;;;;;;7.87;6.53;;;;;;;18.31;96.31;98158.81;1710182;84;20905;-70
2022/08/05 02:09:08;;;;;;;8.78;6.40;;;;;;;18.34;96.50;98158.16;1741316;82;20978;-70
2022/08/05 02:11:54;;;;;;;8.15;6.70;;;;;;;18.35;96.62;98157.80;1701303;84;21218;-70
2022/08/05 02:14:31;;;;;;;8.13;6.08;;;;;;;18.36;96.64;98160.76;1727016;82;20939;-70
2022/08/05 02:17:09;;;;;;;9.85;6.70;;;;;;;18.34;96.75;98155.44;1728180;83;20935;-71
2022/08/05 02:19:38;;;;;;;7.55;6.37;;;;;;;18.33;96.91;98151.13;1741152;82;21350;-69
2022/08/05 02:22:32;;;;;;;7.95;6.92;;;;;;;18.32;97.10;98149.56;1741690;82;20857;-69
2022/08/05 02:25:18;;;;;;;10.88;6.70;;;;;;;18.33;97.05;98153.84;1694795;83;21235;-70
2022/08/05 02:27:48;;;;;;;10.32;6.97;;;;;;;18.33;97.09;98151.13;1715943;82;20916;-70
2022/08/05 02:30:15;;;;;;;9.53;6.40;;;;;;;18.33;97.03;98148.42;1715930;83;20868;-71
2022/08/05 02:32:42;;;;;;;8.33;6.33;;;;;;;18.30;96.99;98150.47;1715974;83;20868;-70
2022/08/05 02:35:13;;;;;;;9.98;6.30;;;;;;;18.27;97.08;98147.06;1694041;83;20928;-70
2022/08/05 02:37:39;;;;;;;8.43;6.47;;;;;;;18.27;97.37;98145.72;1716087;83;21235;-70
2022/08/05 02:40:08;;;;;;;7.55;6.55;;;;;;;18.31;97.42;98143.91;1715910;83;21003;-71
2022/08/05 02:42:35;;;;;;;8.40;6.72;;;;;;;18.35;97.40;98144.80;1716065;83;20984;-69
2022/08/05 02:45:01;;;;;;;8.60;6.53;;;;;;;18.37;97.27;98141.22;1716056;83;21012;-69
2022/08/05 02:47:30;;;;;;;7.62;6.30;;;;;;;18.37;97.27;98143.34;1715993;83;20963;-69
2022/08/05 02:49:56;;;;;;;7.40;6.30;;;;;;;18.40;97.13;98139.97;1715914;83;21076;-69
2022/08/05 02:52:23;;;;;;;7.78;6.40;;;;;;;18.42;96.68;98143.13;1716013;83;20876;-69
2022/08/05 02:54:49;;;;;;;7.33;6.30;;;;;;;18.42;96.45;98140.41;1716062;83;20995;-70
2022/08/05 02:57:17;;;;;;;6.72;6.03;;;;;;;18.44;96.25;98145.52;1716052;83;21050;-69
2022/08/05 02:59:48;;;;;;;7.78;5.97;;;;;;;18.42;96.05;98142.33;1715979;83;20943;-70
2022/08/05 03:02:18;;;;;;;8.13;6.22;;;;;;;18.41;96.12;98144.27;1715957;83;21189;-70
2022/08/05 03:04:45;;;;;;;12.23;6.60;;;;;;;18.41;96.22;98141.56;1715899;83;20899;-70
2022/08/05 03:07:12;;;;;;;9.43;6.45;;;;;;;18.40;96.29;98141.87;1716060;83;20872;-69
2022/08/05 03:09:40;;;;;;;8.75;6.12;;;;;;;18.41;96.15;98138.05;1716015;83;21014;-70
2022/08/05 03:12:09;;;;;;;7.03;5.75;;;;;;;18.41;95.84;98142.92;1694489;83;20975;-71
2022/08/05 03:14:36;;;;;;;8.00;5.80;;;;;;;18.39;95.68;98141.67;1715917;83;21123;-69
2022/08/05 03:17:02;;;;;;;9.43;6.35;;;;;;;18.38;95.67;98144.14;1715929;83;20900;-70
2022/08/05 03:19:29;;;;;;;6.95;6.25;;;;;;;18.37;95.62;98147.41;1716011;83;20952;-71
2022/08/05 03:21:55;;;;;;;10.15;6.22;;;;;;;18.39;95.59;98149.80;1715940;83;20983;-69
2022/08/05 03:24:21;;;;;;;6.75;5.95;;;;;;;18.38;95.43;98148.20;1739296;81;20892;-68
2022/08/05 03:26:48;;;;;;;9.30;6.17;;;;;;;18.37;95.35;98153.42;1757453;81;21173;-69
2022/08/05 03:29:14;;;;;;;6.40;5.47;;;;;;;18.35;95.26;98148.31;1757501;81;20879;-70
2022/08/05 03:31:41;;;;;;;6.60;5.50;;;;;;;18.35;95.30;98154.30;1757423;81;20987;-69
2022/08/05 03:34:07;;;;;;;8.73;5.67;;;;;;;18.39;95.27;98152.52;1757536;81;20970;-69
2022/08/05 03:36:33;;;;;;;10.20;5.70;;;;;;;18.41;95.23;98154.33;1757477;81;20943;-70
2022/08/05 03:39:06;;;;;;;9.28;5.72;;;;;;;18.42;95.19;98151.82;1757645;81;21603;-70
2022/08/05 03:41:33;;;;;;;7.78;6.17;;;;;;;18.44;95.03;98152.30;1757414;81;21418;-70
2022/08/05 03:44:00;;;;;;;10.93;5.30;;;;;;;18.48;94.89;98155.95;1757455;81;20954;-69
2022/08/05 03:46:27;;;;;;;6.05;5.45;;;;;;;18.51;94.83;98153.92;1757427;81;20930;-70
2022/08/05 03:48:53;;;;;;;8.68;5.85;;;;;;;18.54;94.79;98157.30;1757574;81;20832;-70
2022/08/05 03:51:27;;;;;;;8.10;5.62;;;;;;;18.56;94.73;98156.39;1757527;81;21117;-70
2022/08/05 03:54:04;;;;;;;6.85;6.03;;;;;;;18.58;94.74;98160.94;1757243;81;20926;-69
2022/08/05 03:56:42;;;;;;;6.22;5.60;;;;;;;18.59;94.66;98153.01;1757371;81;21054;-68
2022/08/05 03:59:22;;;;;;;7.05;5.55;;;;;;;18.62;94.59;98156.97;1736960;81;20982;-72
2022/08/05 04:01:50;;;;;;;8.63;5.97;;;;;;;18.64;94.67;98145.21;1757472;81;20985;-71
2022/08/05 04:04:16;;;;;;;6.70;5.55;;;;;;;18.67;94.68;98152.68;1757433;81;21070;-71
2022/08/05 04:06:43;;;;;;;14.85;6.10;;;;;;;18.71;94.66;98150.86;1757478;81;20907;-70
2022/08/05 04:09:10;;;;;;;7.83;5.92;;;;;;;18.75;94.65;98153.91;1757438;81;20919;-71
2022/08/05 04:11:37;;;;;;;6.22;5.62;;;;;;;18.81;94.50;98157.20;1757391;81;20990;-70
2022/08/05 04:14:03;;;;;;;7.05;6.00;;;;;;;18.88;94.35;98156.07;1757460;81;20860;-70
2022/08/05 04:16:32;;;;;;;9.90;6.17;;;;;;;18.93;94.17;98156.65;1757637;81;21984;-70
2022/08/05 04:18:58;;;;;;;10.03;6.00;;;;;;;18.97;94.05;98160.25;1757471;81;20923;-70
2022/08/05 04:21:25;;;;;;;10.50;6.12;;;;;;;18.99;93.88;98155.27;1757440;81;20836;-70
2022/08/05 04:23:51;;;;;;;14.05;5.37;;;;;;;19.02;93.76;98161.38;1763690;80;21419;-71
2022/08/05 04:26:18;;;;;;;7.15;6.03;;;;;;;19.06;93.69;98164.20;1762043;80;21443;-71
2022/08/05 04:28:44;;;;;;;11.28;6.35;;;;;;;19.14;93.64;98164.65;1783754;80;21067;-69
2022/08/05 04:31:11;;;;;;;10.43;6.30;;;;;;;19.23;93.44;98163.16;1783656;79;20976;-70
2022/08/05 04:33:38;;;;;;;9.40;6.67;;;;;;;19.33;93.14;98169.48;1783852;80;20911;-71
2022/08/05 04:36:06;;;;;;;10.60;6.33;;;;;;;19.40;92.70;98164.29;1784035;80;21423;-71
2022/08/05 04:38:32;;;;;;;9.23;5.67;;;;;;;19.49;92.33;98170.38;1783786;80;21408;-71
2022/08/05 04:40:59;;;;;;;11.85;6.25;;;;;;;19.58;92.08;98168.31;1783742;80;21000;-70
2022/08/05 04:43:25;;;;;;;8.65;6.05;;;;;;;19.66;91.70;98167.39;1783768;80;21427;-70
2022/08/05 04:45:52;;;;;;;9.40;6.03;;;;;;;19.73;91.27;98168.39;1783746;80;20903;-70
2022/08/05 04:48:18;;;;;;;12.07;6.50;;;;;;;19.81;90.89;98160.44;1783828;80;20967;-70
2022/08/05 04:50:47;;;;;;;12.03;6.08;;;;;;;19.87;90.56;98165.27;1783946;80;21428;-70
2022/08/05 04:53:16;;;;;;;9.43;5.90;;;;;;;19.94;90.16;98160.03;1783833;80;21172;-71
2022/08/05 04:55:42;;;;;;;7.97;5.97;;;;;;;20.00;89.79;98155.11;1783951;79;20892;-70
2022/08/05 04:58:12;;;;;;;12.23;6.55;;;;;;;20.04;89.65;98159.54;1783849;80;20974;-70
2022/08/05 05:00:39;;;;;;;10.25;6.97;;;;;;;20.10;89.53;98158.13;1783707;80;20924;-71
2022/08/05 05:03:06;;;;;;;10.45;6.40;;;;;;;20.16;89.48;98162.17;1783864;80;20872;-70
2022/08/05 05:05:32;;;;;;;11.33;6.80;;;;;;;20.20;89.17;98160.35;1783831;80;21246;-70
2022/08/05 05:08:02;;;;;;;10.45;6.60;;;;;;;20.24;88.91;98161.83;1783774;80;20891;-70
2022/08/05 05:10:30;;;;;;;13.43;7.33;;;;;;;20.29;88.83;98162.37;1783791;80;20967;-70
2022/08/05 05:12:57;;;;;;;15.58;7.58;;;;;;;20.32;88.63;98165.76;1783681;80;20987;-70
2022/08/05 05:15:25;;;;;;;15.68;7.33;;;;;;;20.38;88.46;98152.11;1784146;80;21404;-70
2022/08/05 05:17:51;;;;;;;21.27;8.30;;;;;;;20.43;88.28;98152.41;1778644;80;21091;-71
2022/08/05 05:20:22;;;;;;;11.43;7.62;;;;;;;20.49;88.10;98150.23;1781059;80;20971;-70
2022/08/05 05:22:49;;;;;;;13.43;7.30;;;;;;;20.55;88.05;98152.33;1783610;80;20884;-69
2022/08/05 05:25:15;;;;;;;16.25;7.42;;;;;;;20.64;87.98;98154.87;1774538;80;21033;-70
2022/08/05 05:27:42;;;;;;;15.18;7.97;;;;;;;20.71;87.85;98149.59;1748530;81;21134;-70
2022/08/05 05:30:11;;;;;;;16.42;7.53;;;;;;;20.78;87.86;98153.28;1742859;81;22077;-70
2022/08/05 05:32:37;;;;;;;13.78;7.83;;;;;;;20.89;87.74;98152.95;1742336;81;21073;-69
2022/08/05 05:35:05;;;;;;;9.60;7.12;;;;;;;20.97;87.32;98163.45;1789736;79;20928;-69
2022/08/05 05:37:32;;;;;;;10.08;6.55;;;;;;;21.03;86.44;98165.54;1806651;79;21407;-70
2022/08/05 05:39:58;;;;;;;10.70;6.55;;;;;;;21.10;86.06;98164.97;1788746;79;21588;-69
2022/08/05 05:42:25;;;;;;;9.35;6.53;;;;;;;21.18;85.78;98172.14;1798089;79;21122;-69
2022/08/05 05:44:51;;;;;;;12.93;7.20;;;;;;;21.26;85.68;98162.20;1775606;80;20872;-71
2022/08/05 05:47:18;;;;;;;13.75;6.83;;;;;;;21.35;85.54;98163.58;1775104;80;21030;-70
2022/08/05 05:49:44;;;;;;;8.03;6.72;;;;;;;21.42;84.96;98161.01;1785091;79;21494;-70
2022/08/05 05:52:11;;;;;;;8.68;6.08;;;;;;;21.50;84.43;98159.23;1800527;79;21067;-70
2022/08/05 05:54:37;;;;;;;16.90;7.17;;;;;;;21.58;83.83;98160.38;1808187;79;21253;-70
2022/08/05 05:57:04;;;;;;;9.78;6.53;;;;;;;21.66;83.14;98162.69;1808207;79;21392;-70
2022/08/05 05:59:30;;;;;;;9.93;6.65;;;;;;;21.70;82.82;98156.16;1808070;79;20955;-70
2022/08/05 06:01:57;;;;;;;12.50;6.87;;;;;;;21.79;82.34;98162.17;1806605;79;21089;-70
2022/08/05 06:04:24;;;;;;;8.13;6.35;;;;;;;21.87;82.35;98157.69;1806549;79;21079;-68
2022/08/05 06:06:50;;;;;;;12.43;6.75;;;;;;;21.95;81.95;98164.08;1806721;79;21233;-68
2022/08/05 06:09:17;;;;;;;8.85;6.22;;;;;;;22.01;81.73;98157.96;1807076;79;20959;-68
2022/08/05 06:11:44;;;;;;;8.83;6.03;;;;;;;22.10;81.52;98157.73;1807499;79;21090;-70
2022/08/05 06:14:11;;;;;;;10.68;5.83;;;;;;;22.17;81.38;98154.56;1807607;79;21483;-69
2022/08/05 06:16:38;;;;;;;13.08;6.80;;;;;;;22.27;81.08;98157.27;1807981;79;36286;-70
2022/08/05 06:19:05;;;;;;;10.28;5.90;;;;;;;22.37;80.92;98162.14;1799721;79;21050;-66
2022/08/05 06:21:31;;;;;;;7.15;5.60;;;;;;;22.46;80.21;98152.56;1740821;81;20972;-69
2022/08/05 06:23:58;;;;;;;7.83;5.03;;;;;;;22.52;79.32;98154.39;1747711;81;20967;-69
2022/08/05 06:26:25;;;;;;;7.15;4.87;;;;;;;22.58;78.69;98153.53;1799845;79;21415;-70
2022/08/05 06:28:51;;;;;;;6.85;5.00;;;;;;;22.66;78.24;98157.99;1798938;79;20904;-68
2022/08/05 06:31:18;;;;;;;7.75;4.65;;;;;;;22.71;77.66;98157.09;1798905;79;21146;-68
2022/08/05 06:33:45;;;;;;;8.95;4.97;;;;;;;22.78;77.09;98161.30;1799212;79;21407;-69
2022/08/05 06:36:11;;;;;;;9.08;4.65;;;;;;;22.85;76.58;98158.69;1799627;79;20865;-69
2022/08/05 06:38:38;;;;;;;10.28;5.35;;;;;;;22.91;76.44;98161.91;1788753;79;20944;-67
2022/08/05 06:41:05;;;;;;;12.18;5.17;;;;;;;22.96;76.16;98162.36;1761621;81;20873;-68
2022/08/05 06:43:33;;;;;;;10.23;5.70;;;;;;;23.02;76.14;98160.91;1768979;79;21109;-70
2022/08/05 06:46:00;;;;;;;13.98;5.53;;;;;;;23.08;76.24;98163.52;1779304;79;20928;-69
2022/08/05 06:48:28;;;;;;;10.18;5.30;;;;;;;23.12;76.02;98158.92;1795149;78;20935;-67
2022/08/05 06:50:54;;;;;;;13.55;5.83;;;;;;;23.15;75.97;98159.53;1785426;78;20953;-68
2022/08/05 06:53:21;;;;;;;15.93;5.80;;;;;;;23.24;76.11;98154.39;1786404;79;20918;-68
2022/08/05 06:55:47;;;;;;;11.97;5.35;;;;;;;23.32;76.25;98155.48;1794445;79;21098;-67
2022/08/05 06:58:13;;;;;;;6.53;5.22;;;;;;;23.41;75.26;98160.12;1787613;79;20928;-70
2022/08/05 07:00:40;;;;;;;9.25;5.20;;;;;;;23.45;74.75;98157.45;1756004;81;21018;-70
2022/08/05 07:03:06;;;;;;;7.45;5.30;;;;;;;23.49;74.21;98156.91;1764002;79;21154;-68
2022/08/05 07:05:33;;;;;;;6.80;5.03;;;;;;;23.52;74.26;98156.17;1782069;79;20884;-68
2022/08/05 07:07:59;;;;;;;6.97;4.58;;;;;;;23.55;73.99;98158.17;1770994;80;21119;-67
2022/08/05 07:10:26;;;;;;;7.75;5.20;;;;;;;23.58;72.95;98158.78;1791592;78;20898;-69
2022/08/05 07:18:24;;;;;;;7.17;4.78;;;;;;;23.76;72.38;98157.08;1778417;79;21549;-67
2022/08/05 07:20:52;;;;;;;9.13;4.95;;;;;;;23.79;72.49;98158.47;1790050;79;21857;-69
2022/08/05 07:23:19;;;;;;;7.87;4.90;;;;;;;23.83;72.09;98164.00;1753825;80;20964;-69
2022/08/05 07:25:45;;;;;;;5.58;4.45;;;;;;;23.88;72.27;98160.94;1781495;80;20883;-69
2022/08/05 07:28:12;;;;;;;8.00;4.90;;;;;;;23.96;71.86;98154.37;1772018;80;20949;-69
2022/08/05 07:30:38;;;;;;;7.75;4.92;;;;;;;24.03;71.73;98155.81;1749145;82;21501;-71
2022/08/05 07:33:07;;;;;;;8.80;4.65;;;;;;;24.11;71.57;98153.41;1774590;80;21214;-68
2022/08/05 07:35:34;;;;;;;5.83;4.20;;;;;;;24.21;71.50;98157.42;1806059;79;20863;-69
2022/08/05 07:38:00;;;;;;;4.40;3.87;;;;;;;24.27;70.63;98152.59;1808146;79;20899;-69
2022/08/05 07:40:27;;;;;;;4.97;4.17;;;;;;;24.33;69.25;98157.16;1804700;79;20995;-69
2022/08/05 07:42:53;;;;;;;6.33;4.30;;;;;;;24.38;69.77;98158.95;1807986;79;20878;-69
2022/08/05 07:45:20;;;;;;;5.62;4.87;;;;;;;24.46;70.00;98153.77;1807854;79;23048;-68
2022/08/05 07:47:46;;;;;;;11.70;4.85;;;;;;;24.53;69.32;98153.61;1807785;79;20953;-67
2022/08/05 07:50:13;;;;;;;6.70;5.03;;;;;;;24.60;69.39;98160.52;1807691;79;20953;-69
2022/08/05 07:52:42;;;;;;;5.85;4.35;;;;;;;24.64;69.11;98154.48;1807695;79;20977;-69
2022/08/05 07:55:09;;;;;;;4.35;3.75;;;;;;;24.67;68.88;98151.78;1776015;80;21462;-70
2022/08/05 07:57:36;;;;;;;4.03;3.62;;;;;;;24.72;68.63;98149.28;1776211;80;21108;-68
2022/08/05 08:00:08;;;;;;;5.08;4.12;;;;;;;24.82;68.72;98143.92;1797135;79;20954;-67
2022/08/05 08:02:40;;;;;;;11.35;5.05;;;;;;;24.94;67.79;98144.21;1803229;79;20978;-70
2022/08/05 08:05:07;;;;;;;6.03;4.72;;;;;;;25.03;67.66;98143.29;1805656;79;20969;-71
2022/08/05 08:07:34;;;;;;;7.42;3.90;;;;;;;25.11;67.88;98144.31;1808185;79;21409;-70
2022/08/05 08:10:00;;;;;;;9.45;4.17;;;;;;;25.21;66.79;98146.92;1807840;79;21922;-68
2022/08/05 08:12:28;;;;;;;4.10;3.70;;;;;;;25.24;65.79;98143.42;1807819;79;21500;-68
2022/08/05 08:14:56;;;;;;;8.43;3.77;;;;;;;25.27;66.36;98144.04;1798179;78;20923;-68
2022/08/05 08:17:23;;;;;;;7.83;4.30;;;;;;;25.32;66.44;98139.54;1752432;81;20999;-68
2022/08/05 08:19:49;;;;;;;4.22;3.70;;;;;;;25.38;66.61;98136.66;1754083;81;20944;-70
2022/08/05 08:22:16;;;;;;;4.35;3.92;;;;;;;25.47;65.65;98138.48;1753352;81;21773;-69
2022/08/05 08:24:42;;;;;;;4.55;3.45;;;;;;;25.54;65.25;98143.22;1809472;79;20969;-69
2022/08/05 08:27:09;;;;;;;4.53;3.20;;;;;;;25.52;64.05;98132.64;1810689;79;20867;-69
2022/08/05 08:29:36;;;;;;;3.50;3.17;;;;;;;25.48;63.45;98129.11;1810650;79;20982;-68
2022/08/05 08:32:03;;;;;;;5.42;3.10;;;;;;;25.49;63.24;98127.92;1809969;79;21077;-69
2022/08/05 08:34:30;;;;;;;4.35;3.00;;;;;;;25.52;63.33;98132.64;1810493;79;21121;-69
2022/08/05 08:36:56;;;;;;;4.75;3.27;;;;;;;25.59;62.98;98129.93;1804974;77;21047;-69
2022/08/05 08:39:23;;;;;;;4.45;3.30;;;;;;;25.62;62.36;98129.17;1809726;79;21055;-68
2022/08/05 08:41:50;;;;;;;5.62;3.37;;;;;;;25.60;63.07;98128.74;1809810;79;20878;-69
2022/08/05 08:44:18;;;;;;;3.47;3.05;;;;;;;25.62;63.55;98121.52;1810401;79;21727;-69
2022/08/05 08:46:46;;;;;;;3.92;3.45;;;;;;;25.70;63.47;98122.52;1810622;79;21118;-69
2022/08/05 08:49:13;;;;;;;4.58;2.65;;;;;;;25.83;64.02;98118.06;1810568;79;20831;-70
2022/08/05 08:51:42;;;;;;;3.45;2.42;;;;;;;25.95;61.55;98117.71;1805561;77;21474;-68
2022/08/05 08:54:09;;;;;;;5.62;2.30;;;;;;;26.01;60.46;98116.14;1804350;79;20946;-68
2022/08/05 08:56:40;;;;;;;3.55;2.98;;;;;;;26.09;59.16;98121.86;1810685;78;20955;-67
2022/08/05 08:59:06;;;;;;;4.83;2.58;;;;;;;26.18;57.81;98112.70;1810592;79;21175;-67
2022/08/05 09:01:38;;;;;;;2.80;2.47;;;;;;;26.23;57.46;98115.06;1810303;79;20882;-68
2022/08/05 09:04:04;;;;;;;4.15;2.92;;;;;;;26.27;57.27;98118.59;1776347;79;20952;-67
2022/08/05 09:06:31;;;;;;;3.83;2.95;;;;;;;26.48;58.93;98117.23;1810228;79;20923;-67
2022/08/05 09:08:59;;;;;;;4.08;3.08;;;;;;;26.48;58.93;98117.23;1800004;79;20970;-68
2022/08/05 09:11:26;;;;;;;4.20;2.98;;;;;;;26.57;58.19;98111.37;1806448;79;21382;-68
2022/08/05 09:13:54;;;;;;;3.50;3.02;;;;;;;26.62;56.99;98109.58;1803422;78;20991;-69
2022/08/05 09:16:22;;;;;;;3.60;2.80;;;;;;;26.60;56.64;98111.36;1716158;82;20920;-67
2022/08/05 09:18:49;;;;;;;3.65;2.52;;;;;;;26.75;57.14;98097.86;1706043;83;20990;-67
2022/08/05 09:21:15;;;;;;;4.85;2.90;;;;;;;26.75;57.14;98097.86;1716474;82;21024;-67
2022/08/05 09:23:44;;;;;;;4.33;2.98;;;;;;;26.83;56.81;98100.77;1692612;83;21285;-67
2022/08/05 09:26:16;;;;;;;5.58;2.77;;;;;;;26.90;58.61;98105.47;1693655;84;20985;-67
2022/08/05 09:28:41;;;;;;;3.60;2.80;;;;;;;26.85;57.71;98104.52;1687587;84;20913;-68
2022/08/05 09:31:11;;;;;;;4.40;2.92;;;;;;;26.73;57.44;98107.05;1692279;83;20930;-68
2022/08/05 09:33:55;;;;;;;4.12;3.10;;;;;;;26.58;57.50;98107.43;1707189;83;20961;-62
2022/08/05 09:36:22;;;;;;;3.08;2.80;;;;;;;26.62;57.39;98104.88;1722722;83;21133;-61
2022/08/05 09:39:05;;;;;;;4.00;2.90;;;;;;;26.62;57.39;98104.88;1691727;83;21026;-63
2022/08/05 09:41:32;;;;;;;3.52;2.72;;;;;;;26.63;56.72;98105.09;1679881;84;21084;-62
2022/08/05 09:43:59;;;;;;;4.05;2.50;;;;;;;26.64;57.23;98098.40;1696396;84;20957;-62
2022/08/05 09:46:31;;;;;;;3.98;3.17;;;;;;;26.72;55.61;98096.44;1684045;83;21420;-63
2022/08/05 09:49:03;;;;;;;3.12;2.80;;;;;;;26.80;56.19;98086.47;1693044;84;21953;-62
2022/08/05 09:51:31;;;;;;;4.65;2.95;;;;;;;26.95;56.89;98093.50;1696224;84;21524;-63
2022/08/05 09:53:58;;;;;;;5.03;2.65;;;;;;;27.13;56.81;98086.60;1680447;83;21000;-62
2022/08/05 09:56:36;;;;;;;2.87;2.60;;;;;;;27.25;55.30;98088.90;1696269;84;20905;-63
2022/08/05 09:59:11;;;;;;;3.85;2.83;;;;;;;27.27;54.25;98099.52;1696158;84;27120;-61
2022/08/05 10:01:41;;;;;;;3.15;2.40;;;;;;;27.30;54.91;98094.00;1685175;83;21246;-62
2022/08/05 10:04:12;;;;;;;3.65;2.52;;;;;;;27.45;55.32;98087.31;1680622;84;20948;-63
2022/08/05 10:06:58;;;;;;;3.23;2.70;;;;;;;27.63;54.80;98089.97;1668831;86;20920;-62
2022/08/05 10:09:26;;;;;;;3.05;2.65;;;;;;;27.69;53.81;98093.30;1668830;85;21313;-60
2022/08/05 10:11:52;;;;;;;5.72;2.70;;;;;;;27.54;53.91;98092.38;1682573;84;21079;-60
2022/08/05 10:14:26;;;;;;;2.72;2.50;;;;;;;27.41;53.66;98091.25;1684978;84;21119;-62
2022/08/05 10:16:55;;;;;;;4.22;2.80;;;;;;;27.42;54.23;98091.43;1691418;83;20944;-62
2022/08/05 10:19:23;;;;;;;4.90;2.80;;;;;;;27.60;54.56;98090.79;1705490;83;21033;-62
2022/08/05 10:21:49;;;;;;;3.83;2.75;;;;;;;27.81;54.79;98094.81;1694776;84;20953;-62
2022/08/05 10:24:18;;;;;;;4.33;2.80;;;;;;;28.05;53.20;98098.03;1694782;84;21009;-62
2022/08/05 10:26:46;;;;;;;6.53;3.10;;;;;;;28.24;52.83;98096.14;1710814;83;21248;-62
2022/08/05 10:29:13;;;;;;;5.67;2.92;;;;;;;28.40;53.28;98095.06;1714967;83;21033;-62
2022/08/05 10:31:39;;;;;;;6.05;3.58;;;;;;;28.44;53.07;98094.44;1708616;83;21071;-62
2022/08/05 10:34:07;;;;;;;3.77;3.20;;;;;;;28.29;52.53;98099.06;1698080;84;21010;-63
2022/08/05 10:36:36;;;;;;;4.12;3.12;;;;;;;27.97;53.48;98096.49;1694508;84;21009;-62
2022/08/05 10:39:07;;;;;;;4.22;3.02;;;;;;;27.64;54.43;98091.55;1694389;84;21263;-62
2022/08/05 10:41:38;;;;;;;5.00;3.22;;;;;;;27.52;55.29;98089.23;1674925;84;20889;-62
2022/08/05 10:44:09;;;;;;;4.40;3.10;;;;;;;27.60;54.40;98089.41;1697932;83;20897;-62
2022/08/05 10:46:50;;;;;;;9.43;3.12;;;;;;;27.69;53.81;98087.02;1694877;84;20925;-62
2022/08/05 10:49:17;;;;;;;6.00;3.72;;;;;;;27.80;54.03;98084.39;1695099;84;21942;-62
2022/08/05 10:51:48;;;;;;;5.03;3.12;;;;;;;28.00;54.23;98083.92;1696900;83;21374;-62
2022/08/05 10:54:15;;;;;;;5.62;3.00;;;;;;;28.15;52.99;98087.55;1695061;84;20941;-62
2022/08/05 10:56:56;;;;;;;5.30;3.17;;;;;;;28.23;53.37;98084.95;1705835;84;20888;-62
2022/08/05 10:59:30;;;;;;;3.92;3.10;;;;;;;28.21;53.09;98090.09;1707867;84;20900;-62
2022/08/05 11:02:10;;;;;;;;;;;;;;;28.07;52.67;98084.67;1710426;84;20975;-63
2022/08/05 11:04:46;;;;;;;3.27;2.98;;;;;;;27.92;52.70;98090.62;1707982;84;21141;-63
2022/08/05 11:07:16;;;;;;;4.58;2.87;;;;;;;27.76;53.04;98093.86;1715120;83;20856;-62
2022/08/05 11:09:54;;;;;;;3.17;2.80;;;;;;;27.82;54.14;98094.23;1718323;83;20888;-62
2022/08/05 11:12:42;;;;;;;5.55;3.00;;;;;;;27.97;53.31;98093.74;1716774;83;21003;-61
2022/08/05 11:15:38;;;;;;;7.50;2.90;;;;;;;28.16;53.87;98087.75;1713616;83;20959;-62
2022/08/05 11:18:25;;;;;;;6.00;2.80;;;;;;;28.41;53.15;98091.70;1705931;83;21379;-63
2022/08/05 11:20:51;;;;;;;3.67;2.80;;;;;;;28.58;52.73;98084.48;1694104;84;21432;-62
2022/08/05 11:23:31;;;;;;;5.03;2.85;;;;;;;28.65;52.45;98085.83;1680870;85;20968;-63
2022/08/05 11:26:10;;;;;;;5.95;2.50;;;;;;;28.66;50.04;98079.14;1675457;84;21016;-66
2022/08/05 11:28:43;;;;;;;3.20;2.42;;;;;;;28.64;50.18;98076.02;1680985;84;20889;-65
2022/08/05 11:31:15;;;;;;;4.20;2.62;;;;;;;28.70;50.46;98082.63;1680847;85;21261;-63
2022/08/05 11:33:51;;;;;;;6.15;2.75;;;;;;;28.82;50.93;98077.41;1680761;85;20992;-62
2022/08/05 11:36:40;;;;;;;3.72;2.70;;;;;;;29.00;49.21;98068.95;1680827;84;20913;-64
2022/08/05 11:39:07;;;;;;;8.10;2.90;;;;;;;29.20;50.17;98067.80;1688548;84;20908;-61
2022/08/05 11:41:34;;;;;;;5.90;2.65;;;;;;;29.45;49.95;98071.82;1705402;84;20957;-58
2022/08/05 11:44:11;;;;;;;4.10;2.60;;;;;;;29.70;49.88;98069.52;1705493;84;21830;-57
2022/08/05 11:46:48;;;;;;;5.60;2.98;;;;;;;29.98;50.60;98058.73;1700260;84;20997;-59
2022/08/05 11:49:20;;;;;;;5.25;2.95;;;;;;;30.27;49.67;98067.36;1700524;84;21410;-59